Thalassa — FNFP — position and weather

sailwx.info

Track history (hours):
 
Tides and Currents Weather Stations Pressure Air Temp Water Temp Dewpoint Dewpoint Depression Visibility Wind Speed Wind Dir Waves Ship Positions

Oceanographic research ship Thalassa (France & Spain)

Detailed information on ship capabilities available from University of Delaware's Ocean Information Center.

Last reported at 2017-Jun-03 10:56 UTC. Time now 2017-Aug-17 01:39 UTC.
Position N 47°51' W 003°56'.
Warning: this ship's position is months out of date.

Length 74 m; beam 15 m.

Type: Ship. MMSI: 227297000.

Date/timePositionNaut miles runAvg speedWind from/ knotsBaromVisibWave heightAir tempDewpointWater temp
2017-Jun-03 10:56N 47°51' W 003°56'1 1.1
2017-Jun-03 10:26N 47°50' W 003°56'0 0.5
2017-Jun-03 10:00N 47°50' W 003°56'0 0.1
2017-Jun-03 09:30N 47°50' W 003°56'2 3.8
2017-Jun-03 08:51N 47°48' W 003°57'0 0.3
2017-Jun-03 08:30N 47°48' W 003°57'0 0.5
2017-Jun-03 08:00N 47°48' W 003°57'0 0.3
2017-Jun-03 07:30N 47°48' W 003°57'0 0.4
2017-Jun-03 07:00N 47°49' W 003°57'0 0.4
2017-Jun-03 06:30N 47°49' W 003°57'0 0.4
2017-Jun-03 05:57N 47°49' W 003°57'0 0.3
2017-Jun-03 05:30N 47°49' W 003°57'2 4.6
2017-Jun-03 05:00N 47°47' W 003°58'2 4.3
2017-Jun-03 04:25N 47°45' W 003°59'3 4.2
2017-Jun-03 03:39N 47°44' W 004°04'1 3.8
2017-Jun-03 03:24N 47°44' W 004°05'3 3.9
2017-Jun-03 02:38N 47°44' W 004°10'4 4.1
2017-Jun-03 01:38N 47°44' W 004°16'3 4.1
2017-Jun-03 01:00N 47°44' W 004°20'3 5.2
2017-Jun-03 00:31N 47°46' W 004°23'2 4.9
2017-Jun-03 00:00N 47°48' W 004°25'2 4.9
2017-Jun-02 23:30N 47°49' W 004°28'3 5.6
2017-Jun-02 23:00N 47°51' W 004°31'3 6.1
2017-Jun-02 22:31N 47°53' W 004°34'3 6.0
2017-Jun-02 22:00N 47°56' W 004°37'4 7.7
2017-Jun-02 21:31N 47°58' W 004°41'611.4
2017-Jun-02 21:01N 48°03' W 004°47'612.1
2017-Jun-02 20:31N 48°09' W 004°46'713.4
2017-Jun-02 20:01N 48°15' W 004°45'612.4
2017-Jun-02 19:30N 48°19' W 004°37'510.3
2017-Jun-02 19:00N 48°22' W 004°31'2 3.3
2017-Jun-02 18:28N 48°23' W 004°29'0 0.0
2017-Jun-02 17:58N 48°23' W 004°29'0 0.0
2017-Jun-02 17:29N 48°23' W 004°29'0 0.0
2017-Jun-02 16:59N 48°23' W 004°29'0 0.0
2017-Jun-02 16:28N 48°23' W 004°29'0 0.0
2017-Jun-02 15:58N 48°23' W 004°29'0 0.0
2017-Jun-02 15:28N 48°23' W 004°29'0 0.0
2017-Jun-02 14:58N 48°23' W 004°29'0 0.0
2017-Jun-02 13:58N 48°23' W 004°29'0 0.0
2017-Jun-02 13:29N 48°23' W 004°29'0 0.0
2017-Jun-02 12:58N 48°23' W 004°29'0 0.0
2017-Jun-02 12:28N 48°23' W 004°29'0 0.0
2017-Jun-02 11:58N 48°23' W 004°29'0 0.0
2017-Jun-02 11:28N 48°23' W 004°29'0 0.0
2017-Jun-02 10:58N 48°23' W 004°29'0 0.0
2017-Jun-02 10:28N 48°23' W 004°29'0 0.0
2017-Jun-02 09:58N 48°23' W 004°29'0 0.0
2017-Jun-02 09:28N 48°23' W 004°29'0 0.0
2017-Jun-02 08:58N 48°23' W 004°29'0 0.0
2017-Jun-02 08:28N 48°23' W 004°29'0 0.0
2017-Jun-02 07:59N 48°23' W 004°29'0 0.0
2017-Jun-02 07:28N 48°23' W 004°29'0 0.0
2017-Jun-02 06:58N 48°23' W 004°29'0 0.0
2017-Jun-02 06:28N 48°23' W 004°29'0 0.0
2017-Jun-02 05:58N 48°23' W 004°29'0 0.0
2017-Jun-02 05:28N 48°23' W 004°29'0 0.0
2017-Jun-02 04:58N 48°23' W 004°29'0 0.0
2017-Jun-02 04:28N 48°23' W 004°29'0 0.0
2017-Jun-02 03:58N 48°23' W 004°29'0 0.0
2017-Jun-02 03:28N 48°23' W 004°29'0 0.0
2017-Jun-02 02:58N 48°23' W 004°29'0 0.0
2017-Jun-02 02:28N 48°23' W 004°29'0 0.0
2017-Jun-02 01:58N 48°23' W 004°29'0 0.0
2017-Jun-02 01:28N 48°23' W 004°29'0 0.0
2017-Jun-02 00:58N 48°23' W 004°29'0 0.0
2017-Jun-02 00:28N 48°23' W 004°29'0 0.0
2017-Jun-01 23:58N 48°23' W 004°29'0 0.0
2017-Jun-01 23:28N 48°23' W 004°29'0 0.0
2017-Jun-01 22:58N 48°23' W 004°29'0 0.0
2017-Jun-01 22:28N 48°23' W 004°29'0 0.0
2017-Jun-01 21:58N 48°23' W 004°29'0 0.0
2017-Jun-01 21:28N 48°23' W 004°29'0 0.0
2017-Jun-01 20:58N 48°23' W 004°29'0 0.0
2017-Jun-01 20:28N 48°23' W 004°29'0 0.0
2017-Jun-01 19:58N 48°23' W 004°29'0 0.0
2017-Jun-01 19:28N 48°23' W 004°29'0 0.0
2017-Jun-01 18:58N 48°23' W 004°29'0 0.0
2017-Jun-01 18:28N 48°23' W 004°29'0 0.0
2017-Jun-01 17:58N 48°23' W 004°29'0 0.0
2017-Jun-01 17:28N 48°23' W 004°29'0 0.0
2017-Jun-01 16:58N 48°23' W 004°29'0 0.0
2017-Jun-01 16:28N 48°23' W 004°29'0 0.0
2017-Jun-01 15:58N 48°23' W 004°29'0 0.0
2017-Jun-01 15:28N 48°23' W 004°29'0 0.0
2017-Jun-01 14:58N 48°23' W 004°29'4 4.1
2017-Jun-01 14:00N 48°20' W 004°34'612.4
2017-Jun-01 13:30N 48°17' W 004°42'611.7
2017-Jun-01 13:00N 48°12' W 004°45'612.5
2017-Jun-01 12:30N 48°06' W 004°46'2 4.4
2017-Jun-01 12:01N 48°03' W 004°47'2 3.3
2017-Jun-01 11:30N 48°02' W 004°46'611.5
2017-Jun-01 11:00N 47°57' W 004°41'612.6
2017-Jun-01 10:30N 47°51' W 004°37'612.6
2017-Jun-01 10:00N 47°46' W 004°33'4 7.6
2017-Jun-01 09:30N 47°42' W 004°31'4 4.1
2017-Jun-01 08:26N 47°39' W 004°26'2 3.7
2017-Jun-01 07:56N 47°38' W 004°24'2 3.6
2017-Jun-01 07:30N 47°38' W 004°21'2 3.5
2017-Jun-01 07:00N 47°38' W 004°24'0 1.0
2017-Jun-01 06:31N 47°39' W 004°24'3 4.6
2017-Jun-01 05:49N 47°38' W 004°20'3 9.3
2017-Jun-01 05:30N 47°38' W 004°24'5 9.8
2017-Jun-01 05:01N 47°40' W 004°31'4 8.1
2017-Jun-01 04:30N 47°39' W 004°25'1 1.8
2017-Jun-01 03:43N 47°40' W 004°23'1 2.6
2017-Jun-01 03:13N 47°39' W 004°21'1 2.6
2017-Jun-01 03:00N 47°39' W 004°21'1 2.5
2017-Jun-01 02:26N 47°37' W 004°22'1 1.7
2017-Jun-01 01:47N 47°37' W 004°23'2 2.0
2017-Jun-01 01:02N 47°37' W 004°25'1 2.6
2017-Jun-01 00:37N 47°38' W 004°25'1 3.1
2017-Jun-01 00:17N 47°39' W 004°25'2 2.2
2017-May-31 23:13N 47°39' W 004°21'1 2.4
2017-May-31 22:44N 47°38' W 004°23'0 1.7
2017-May-31 22:28N 47°38' W 004°23'0 0.4
2017-May-31 21:44N 47°38' W 004°24'0 0.5
2017-May-31 21:15N 47°38' W 004°24'0 0.5
2017-May-31 20:51N 47°38' W 004°24'0 0.5
2017-May-31 20:30N 47°38' W 004°24'0 0.3
2017-May-31 19:51N 47°38' W 004°23'1 3.2
2017-May-31 19:30N 47°38' W 004°25'1 2.3
2017-May-31 18:59N 47°38' W 004°23'2 3.7
2017-May-31 18:24N 47°37' W 004°20'1 3.2
2017-May-31 18:01N 47°37' W 004°19'2 4.7
2017-May-31 17:30N 47°38' W 004°22'2 3.0
2017-May-31 16:52N 47°38' W 004°25'0 0.1
2017-May-31 16:14N 47°38' W 004°25'0 0.1
2017-May-31 16:00N 47°38' W 004°25'2 1.4
2017-May-31 14:45N 47°37' W 004°22'0 0.2
2017-May-31 13:29N 47°37' W 004°22'1 2.9
2017-May-31 13:00N 47°38' W 004°23'1 1.6
2017-May-31 12:28N 47°39' W 004°24'0 0.2
2017-May-31 12:00N 47°39' W 004°24'0 0.3
2017-May-31 11:29N 47°39' W 004°24'0 0.2
2017-May-31 10:56N 47°39' W 004°24'0 0.1
2017-May-31 10:30N 47°39' W 004°24'0 0.2
2017-May-31 09:59N 47°39' W 004°24'0 0.2
2017-May-31 09:28N 47°39' W 004°24'0 0.0
2017-May-31 09:00N 47°39' W 004°24'3 1.4
2017-May-31 06:43N 47°37' W 004°20'1 2.0
2017-May-31 05:59N 47°38' W 004°22'1 1.3
2017-May-31 04:58N 47°37' W 004°20'1 2.3
2017-May-31 04:25N 47°37' W 004°22'1 1.8
2017-May-31 04:01N 47°37' W 004°23'2 1.8
2017-May-31 02:43N 47°39' W 004°25'1 2.5
2017-May-31 02:21N 47°40' W 004°25'1 2.1
2017-May-31 01:43N 47°40' W 004°23'1 2.4
2017-May-31 01:13N 47°39' W 004°21'1 2.7
2017-May-31 00:46N 47°38' W 004°21'1 3.0
2017-May-31 00:28N 47°37' W 004°21'1 1.7
2017-May-31 00:00N 47°37' W 004°23'1 2.6
2017-May-30 23:30N 47°39' W 004°24'1 0.8
2017-May-30 22:15N 47°38' W 004°24'3 0.7
2017-May-30 18:48N 47°37' W 004°20'0 0.3
2017-May-30 18:26N 47°37' W 004°20'0 0.2
2017-May-30 18:00N 47°37' W 004°20'0 0.1
2017-May-30 17:27N 47°37' W 004°20'0 0.3
2017-May-30 16:52N 47°37' W 004°21'0 0.4
2017-May-30 16:28N 47°37' W 004°21'2 1.1
2017-May-30 14:33N 47°38' W 004°24'0 2.8
2017-May-30 14:29N 47°38' W 004°24'1 0.1
2017-May-30 09:48N 47°38' W 004°23'6 8.2
2017-May-30 09:07N 47°41' W 004°16'3 8.7
2017-May-30 08:43N 47°39' W 004°19'17 9.7
2017-May-30 06:59N 47°43' W 004°44'5 9.9
2017-May-30 06:30N 47°44' W 004°51'510.2
2017-May-30 06:00N 47°43' W 004°58'2 4.4
2017-May-30 05:31N 47°42' W 005°01'1 1.7
2017-May-30 04:45N 47°42' W 005°03'2 3.4
2017-May-30 04:18N 47°43' W 005°05'1 2.6
2017-May-30 03:59N 47°44' W 005°04'1 1.6
2017-May-30 03:30N 47°44' W 005°03'1 1.9
2017-May-30 03:00N 47°45' W 005°02'1 2.6
2017-May-30 02:28N 47°44' W 005°00'1 2.0
2017-May-30 02:00N 47°43' W 004°59'1 2.2
2017-May-30 01:30N 47°42' W 005°01'2 2.1
2017-May-30 00:44N 47°44' W 005°01'0 1.8
2017-May-30 00:31N 47°44' W 005°01'1 2.3
2017-May-30 00:00N 47°43' W 005°01'1 2.0
2017-May-29 23:30N 47°42' W 005°02'1 1.3
2017-May-29 23:00N 47°41' W 005°02'1 1.4
2017-May-29 22:27N 47°42' W 005°02'1 1.2
2017-May-29 22:00N 47°42' W 005°02'1 1.1
2017-May-29 21:30N 47°43' W 005°02'1 1.7
2017-May-29 21:00N 47°43' W 005°03'1 1.5
2017-May-29 20:13N 47°44' W 005°03'0 2.0
2017-May-29 20:01N 47°44' W 005°03'1 1.9
2017-May-29 19:30N 47°45' W 005°02'1 2.4
2017-May-29 19:00N 47°44' W 005°03'1 2.7
2017-May-29 18:30N 47°43' W 005°03'2 2.1
2017-May-29 17:41N 47°41' W 005°02'1 2.5
2017-May-29 17:18N 47°42' W 005°01'1 2.7
2017-May-29 17:00N 47°43' W 005°00'1 1.9
2017-May-29 16:30N 47°43' W 004°60'1 2.7
2017-May-29 16:00N 47°44' W 005°01'1 1.9
2017-May-29 15:31N 47°45' W 005°02'1 2.8
2017-May-29 15:00N 47°44' W 005°04'1 1.2
2017-May-29 13:49N 47°43' W 005°02'2 2.6
2017-May-29 13:06N 47°44' W 004°60'0 2.6
2017-May-29 12:55N 47°44' W 004°59'1 2.1
2017-May-29 12:30N 47°44' W 004°60'1 2.2
2017-May-29 12:01N 47°43' W 005°01'1 2.1
2017-May-29 11:20N 47°42' W 005°02'1 2.0
2017-May-29 10:37N 47°41' W 005°04'0 0.8
2017-May-29 10:29N 47°41' W 005°04'1 1.2
2017-May-29 10:00N 47°41' W 005°03'1 1.2
2017-May-29 09:30N 47°42' W 005°03'1 1.1
2017-May-29 09:00N 47°42' W 005°03'1 1.1
2017-May-29 08:30N 47°43' W 005°03'0 0.9
2017-May-29 07:58N 47°43' W 005°02'0 0.9
2017-May-29 07:31N 47°44' W 005°02'0 0.5
2017-May-29 07:01N 47°44' W 005°02'0 0.7
2017-May-29 06:29N 47°44' W 005°01'0 1.0
2017-May-29 05:59N 47°45' W 005°02'1 1.9
2017-May-29 05:30N 47°46' W 005°01'1 2.5
2017-May-29 05:00N 47°46' W 005°00'1 1.9
2017-May-29 04:30N 47°46' W 004°59'2 2.4
2017-May-29 03:46N 47°45' W 004°57'1 2.4
2017-May-29 03:31N 47°45' W 004°58'1 2.5
2017-May-29 03:00N 47°44' W 004°59'1 1.9
2017-May-29 02:13N 47°44' W 005°01'1 2.7
2017-May-29 01:57N 47°45' W 005°02'1 1.7
2017-May-29 01:27N 47°46' W 005°01'1 2.4
2017-May-29 00:59N 47°46' W 005°00'1 1.2
2017-May-29 00:31N 47°47' W 004°59'2 3.0
2017-May-29 00:00N 47°45' W 005°00'1 2.4
2017-May-28 23:29N 47°44' W 005°02'1 1.9
2017-May-28 23:00N 47°45' W 005°01'1 2.2
2017-May-28 22:31N 47°45' W 004°59'0 0.6
2017-May-28 21:56N 47°46' W 004°59'0 1.0
2017-May-28 21:30N 47°46' W 004°59'1 1.1
2017-May-28 21:00N 47°46' W 004°59'1 1.5
2017-May-28 20:30N 47°45' W 004°59'1 1.3
2017-May-28 20:01N 47°44' W 004°59'1 1.5
2017-May-28 19:31N 47°43' W 004°59'0 0.1
2017-May-28 19:00N 47°43' W 004°59'0 0.5
2017-May-28 18:31N 47°44' W 004°59'0 0.5
2017-May-28 18:00N 47°44' W 004°59'0 0.2
2017-May-28 17:30N 47°44' W 004°59'0 0.1
2017-May-28 17:00N 47°44' W 004°59'0 0.5
2017-May-28 16:31N 47°44' W 004°59'2 4.6
2017-May-28 15:58N 47°42' W 005°01'611.8
2017-May-28 15:28N 47°47' W 004°55'511.6
2017-May-28 15:01N 47°51' W 004°50'1110.6
2017-May-28 14:00N 48°01' W 004°45'3 6.5
2017-May-28 13:31N 48°04' W 004°46'5 9.5
2017-May-28 13:01N 48°08' W 004°46'611.5
2017-May-28 12:31N 48°14' W 004°45'611.7
2017-May-28 12:01N 48°19' W 004°41'1 2.0
2017-May-28 11:28N 48°20' W 004°41'0 0.1
2017-May-28 10:58N 48°20' W 004°41'0 0.1
2017-May-28 10:28N 48°20' W 004°41'0 0.0
2017-May-28 09:58N 48°20' W 004°41'0 0.0
2017-May-28 09:28N 48°20' W 004°41'0 0.0
2017-May-28 08:58N 48°20' W 004°41'0 0.0
2017-May-28 08:28N 48°20' W 004°41'0 0.0
2017-May-28 07:58N 48°20' W 004°41'0 0.0
2017-May-28 07:28N 48°20' W 004°41'0 0.6
2017-May-28 07:00N 48°20' W 004°40'510.7
2017-May-28 06:30N 48°21' W 004°32'3 5.8
2017-May-28 06:00N 48°23' W 004°29'0 0.0
2017-May-28 05:30N 48°23' W 004°29'0 0.0
2017-May-28 04:58N 48°23' W 004°29'0 0.0
2017-May-28 04:28N 48°23' W 004°29'0 0.0
2017-May-28 03:58N 48°23' W 004°29'0 0.0
2017-May-28 03:28N 48°23' W 004°29'0 0.0
2017-May-28 02:58N 48°23' W 004°29'0 0.0
2017-May-28 02:28N 48°23' W 004°29'0 0.0
2017-May-28 01:58N 48°23' W 004°29'0 0.0
2017-May-28 01:28N 48°23' W 004°29'0 0.0
2017-May-28 00:58N 48°23' W 004°29'0 0.0
2017-May-28 00:28N 48°23' W 004°29'0 0.0
2017-May-27 23:58N 48°23' W 004°29'0 0.0
2017-May-27 23:28N 48°23' W 004°29'0 0.0
2017-May-27 22:58N 48°23' W 004°29'0 0.0
2017-May-27 22:28N 48°23' W 004°29'0 0.0
2017-May-27 21:58N 48°23' W 004°29'0 0.0
2017-May-27 21:28N 48°23' W 004°29'0 0.0
2017-May-27 20:58N 48°23' W 004°29'0 0.0
2017-May-27 20:28N 48°23' W 004°29'0 0.0
2017-May-27 19:58N 48°23' W 004°29'0 0.0
2017-May-27 19:28N 48°23' W 004°29'0 0.0
2017-May-27 18:58N 48°23' W 004°29'0 0.0
2017-May-27 18:28N 48°23' W 004°29'0 0.0
2017-May-27 17:58N 48°23' W 004°29'0 0.0
2017-May-27 17:31N 48°23' W 004°29'0 0.0
2017-May-27 16:58N 48°23' W 004°29'0 0.0
2017-May-27 16:28N 48°23' W 004°29'0 0.0
2017-May-27 16:01N 48°23' W 004°29'0 0.0
2017-May-27 15:31N 48°23' W 004°29'0 0.0
2017-May-27 15:01N 48°23' W 004°29'0 0.0
2017-May-27 14:31N 48°23' W 004°29'0 0.0
2017-May-27 13:31N 48°23' W 004°29'0 0.0
2017-May-27 13:01N 48°23' W 004°29'0 0.0
2017-May-27 12:30N 48°23' W 004°29'0 0.0
2017-May-27 12:00N 48°23' W 004°29'0 0.0
2017-May-27 11:30N 48°23' W 004°29'0 0.0
2017-May-27 11:00N 48°23' W 004°29'0 0.0
2017-May-27 10:31N 48°23' W 004°29'0 0.0
2017-May-27 10:00N 48°23' W 004°29'0 0.0
2017-May-27 09:30N 48°23' W 004°29'0 0.0
2017-May-27 09:01N 48°23' W 004°29'0 0.0
2017-May-27 08:30N 48°23' W 004°29'0 0.0
2017-May-27 08:01N 48°23' W 004°29'0 0.0
2017-May-27 07:31N 48°23' W 004°29'0 0.0
2017-May-27 07:01N 48°23' W 004°29'0 0.0
2017-May-27 06:31N 48°23' W 004°29'0 0.0
2017-May-27 06:01N 48°23' W 004°29'0 0.0
2017-May-27 05:30N 48°23' W 004°29'0 0.0
2017-May-27 05:00N 48°23' W 004°29'0 0.0
2017-May-27 04:30N 48°23' W 004°29'0 0.0
2017-May-27 04:00N 48°23' W 004°29'0 0.0
2017-May-27 03:30N 48°23' W 004°29'0 0.0
2017-May-27 03:00N 48°23' W 004°29'0 0.0
2017-May-27 02:30N 48°23' W 004°29'0 0.0
2017-May-27 02:01N 48°23' W 004°29'0 0.0
2017-May-27 01:30N 48°23' W 004°29'0 0.0
2017-May-27 01:00N 48°23' W 004°29'0 0.0
2017-May-27 00:30N 48°23' W 004°29'0 0.0
2017-May-27 00:00N 48°23' W 004°29'0 0.0
2017-May-26 23:30N 48°23' W 004°29'0 0.0
2017-May-26 23:00N 48°23' W 004°29'0 0.0
2017-May-26 22:30N 48°23' W 004°29'0 0.0
2017-May-26 22:00N 48°23' W 004°29'0 0.0
2017-May-26 21:30N 48°23' W 004°29'0 0.0
2017-May-26 21:00N 48°23' W 004°29'0 0.0
2017-May-26 20:30N 48°23' W 004°29'0 0.0
2017-May-26 20:00N 48°23' W 004°29'0 0.0
2017-May-26 19:30N 48°23' W 004°29'0 0.0
2017-May-26 19:00N 48°23' W 004°29'0 0.0
2017-May-26 18:30N 48°23' W 004°29'0 0.0
2017-May-26 18:00N 48°23' W 004°29'0 0.0
2017-May-26 17:30N 48°23' W 004°29'0 0.0
2017-May-26 17:00N 48°23' W 004°29'0 0.0
2017-May-26 16:30N 48°23' W 004°29'0 0.0
2017-May-26 16:00N 48°23' W 004°29'0 0.0
2017-May-26 15:30N 48°23' W 004°29'0 0.0
2017-May-26 15:00N 48°23' W 004°29'0 0.0
2017-May-26 14:00N 48°23' W 004°29'0 0.0
2017-May-26 13:30N 48°23' W 004°29'0 0.0
2017-May-26 13:00N 48°23' W 004°29'0 0.0
2017-May-26 12:30N 48°23' W 004°29'0 0.0
2017-May-26 12:00N 48°23' W 004°29'0 0.0
2017-May-26 11:30N 48°23' W 004°29'0 0.0
2017-May-26 11:00N 48°23' W 004°29'0 0.0
2017-May-26 10:30N 48°23' W 004°29'0 0.0
2017-May-26 10:00N 48°23' W 004°29'0 0.0
2017-May-26 09:30N 48°23' W 004°29'0 0.0
2017-May-26 09:00N 48°23' W 004°29'0 0.0
2017-May-26 08:30N 48°23' W 004°29'0 0.0
2017-May-26 08:00N 48°23' W 004°29'0 0.0
2017-May-26 07:30N 48°23' W 004°29'0 0.0
2017-May-26 07:00N 48°23' W 004°29'0 0.0
2017-May-26 06:30N 48°23' W 004°29'0 0.0
2017-May-26 06:00N 48°23' W 004°29'0 0.0
2017-May-26 05:30N 48°23' W 004°29'0 0.0
2017-May-26 05:00N 48°23' W 004°29'0 0.0
2017-May-26 04:30N 48°23' W 004°29'0 0.0
2017-May-26 04:00N 48°23' W 004°29'0 0.0
2017-May-26 03:30N 48°23' W 004°29'0 0.0
2017-May-26 03:00N 48°23' W 004°29'0 0.0
2017-May-26 02:30N 48°23' W 004°29'0 0.0
2017-May-26 02:00N 48°23' W 004°29'0 0.0
2017-May-26 01:30N 48°23' W 004°29'0 0.0
2017-May-26 01:00N 48°23' W 004°29'0 0.0
2017-May-26 00:30N 48°23' W 004°29'0 0.0
2017-May-26 00:00N 48°23' W 004°29'0 0.0
2017-May-25 23:30N 48°23' W 004°29'0 0.0
2017-May-25 23:00N 48°23' W 004°29'0 0.0
2017-May-25 22:30N 48°23' W 004°29'0 0.0
2017-May-25 22:00N 48°23' W 004°29'0 0.0
2017-May-25 21:30N 48°23' W 004°29'0 0.0
2017-May-25 21:00N 48°23' W 004°29'0 0.0
2017-May-25 20:30N 48°23' W 004°29'0 0.0
2017-May-25 20:00N 48°23' W 004°29'0 0.0
2017-May-25 19:30N 48°23' W 004°29'0 0.0
2017-May-25 19:00N 48°23' W 004°29'0 0.0
2017-May-25 18:30N 48°23' W 004°29'0 0.0
2017-May-25 18:00N 48°23' W 004°29'0 0.0
2017-May-25 17:30N 48°23' W 004°29'0 0.0
2017-May-25 17:00N 48°23' W 004°29'0 0.0
2017-May-25 16:30N 48°23' W 004°29'0 0.0
2017-May-25 16:00N 48°23' W 004°29'0 0.0
2017-May-25 15:30N 48°23' W 004°29'0 0.0
2017-May-25 15:00N 48°23' W 004°29'0 0.0
2017-May-25 14:00N 48°23' W 004°29'0 0.0
2017-May-25 13:30N 48°23' W 004°29'0 0.0
2017-May-25 13:00N 48°23' W 004°29'0 0.0
2017-May-25 12:30N 48°23' W 004°29'0 0.0
2017-May-25 12:00N 48°23' W 004°29'0 0.0
2017-May-25 11:30N 48°23' W 004°29'0 0.0
2017-May-25 11:00N 48°23' W 004°29'0 0.0
2017-May-25 10:30N 48°23' W 004°29'0 0.0
2017-May-25 10:00N 48°23' W 004°29'0 0.0
2017-May-25 09:30N 48°23' W 004°29'0 0.0
2017-May-25 09:00N 48°23' W 004°29'0 0.0
2017-May-25 08:30N 48°23' W 004°29'0 0.0
2017-May-25 08:00N 48°23' W 004°29'0 0.0
2017-May-25 07:30N 48°23' W 004°29'0 0.0
2017-May-25 07:00N 48°23' W 004°29'0 0.0
2017-May-25 06:30N 48°23' W 004°29'0 0.0
2017-May-25 06:00N 48°23' W 004°29'0 0.0
2017-May-25 05:30N 48°23' W 004°29'0 0.0
2017-May-25 05:00N 48°23' W 004°29'0 0.0
2017-May-25 04:30N 48°23' W 004°29'0 0.0
2017-May-25 04:00N 48°23' W 004°29'0 0.0
2017-May-25 03:30N 48°23' W 004°29'0 0.0
2017-May-25 03:00N 48°23' W 004°29'0 0.0
2017-May-25 02:30N 48°23' W 004°29'0 0.0
2017-May-25 02:00N 48°23' W 004°29'0 0.0
2017-May-25 01:30N 48°23' W 004°29'0 0.0
2017-May-25 01:00N 48°23' W 004°29'0 0.0
2017-May-25 00:30N 48°23' W 004°29'0 0.0
2017-May-25 00:00N 48°23' W 004°29'0 0.0
2017-May-24 23:30N 48°23' W 004°29'0 0.0
2017-May-24 23:00N 48°23' W 004°29'0 0.0
2017-May-24 22:30N 48°23' W 004°29'0 0.0
2017-May-24 22:00N 48°23' W 004°29'0 0.0
2017-May-24 21:30N 48°23' W 004°29'0 0.0
2017-May-24 21:00N 48°23' W 004°29'0 0.0
2017-May-24 20:30N 48°23' W 004°29'0 0.0
2017-May-24 20:00N 48°23' W 004°29'0 0.0
2017-May-24 19:30N 48°23' W 004°29'0 0.0
2017-May-24 19:00N 48°23' W 004°29'0 0.0
2017-May-24 18:30N 48°23' W 004°29'0 0.0
2017-May-24 18:00N 48°23' W 004°29'0 0.0
2017-May-24 17:30N 48°23' W 004°29'0 0.0
2017-May-24 17:00N 48°23' W 004°29'0 0.0
2017-May-24 16:30N 48°23' W 004°29'0 0.0
2017-May-24 16:00N 48°23' W 004°29'0 0.0
2017-May-24 15:30N 48°23' W 004°29'0 0.0
2017-May-24 15:00N 48°23' W 004°29'0 0.0
2017-May-24 14:30N 48°23' W 004°29'4 3.9
2017-May-24 13:30N 48°21' W 004°34'5 9.8
2017-May-24 13:00N 48°19' W 004°41'510.2
2017-May-24 12:31N 48°20' W 004°48'5 9.1
2017-May-24 12:00N 48°25' W 004°49'511.0
2017-May-24 11:30N 48°30' W 004°51'611.6
2017-May-24 11:00N 48°36' W 004°52'  
Track history (hours):
 
Tides and Currents Weather Stations Pressure Air Temp Water Temp Dewpoint Dewpoint Depression Visibility Wind Speed Wind Dir Waves Ship Positions

Oceanographic research ship Thalassa (France & Spain)

Detailed information on ship capabilities available from University of Delaware's Ocean Information Center.

Last reported at 2017-Jun-03 10:56 UTC. Time now 2017-Aug-17 01:39 UTC.
Position N 47°51' W 003°56'.
Warning: this ship's position is months out of date.

Length 74 m; beam 15 m.

Type: Ship. MMSI: 227297000.

Date/timePositionNaut miles runAvg speedWind from/ knotsBaromVisibWave heightAir tempDewpointWater temp
2017-Jun-03 10:56N 47°51' W 003°56'1 1.1
2017-Jun-03 10:26N 47°50' W 003°56'0 0.5
2017-Jun-03 10:00N 47°50' W 003°56'0 0.1
2017-Jun-03 09:30N 47°50' W 003°56'2 3.8
2017-Jun-03 08:51N 47°48' W 003°57'0 0.3
2017-Jun-03 08:30N 47°48' W 003°57'0 0.5
2017-Jun-03 08:00N 47°48' W 003°57'0 0.3
2017-Jun-03 07:30N 47°48' W 003°57'0 0.4
2017-Jun-03 07:00N 47°49' W 003°57'0 0.4
2017-Jun-03 06:30N 47°49' W 003°57'0 0.4
2017-Jun-03 05:57N 47°49' W 003°57'0 0.3
2017-Jun-03 05:30N 47°49' W 003°57'2 4.6
2017-Jun-03 05:00N 47°47' W 003°58'2 4.3
2017-Jun-03 04:25N 47°45' W 003°59'3 4.2
2017-Jun-03 03:39N 47°44' W 004°04'1 3.8
2017-Jun-03 03:24N 47°44' W 004°05'3 3.9
2017-Jun-03 02:38N 47°44' W 004°10'4 4.1
2017-Jun-03 01:38N 47°44' W 004°16'3 4.1
2017-Jun-03 01:00N 47°44' W 004°20'3 5.2
2017-Jun-03 00:31N 47°46' W 004°23'2 4.9
2017-Jun-03 00:00N 47°48' W 004°25'2 4.9
2017-Jun-02 23:30N 47°49' W 004°28'3 5.6
2017-Jun-02 23:00N 47°51' W 004°31'3 6.1
2017-Jun-02 22:31N 47°53' W 004°34'3 6.0
2017-Jun-02 22:00N 47°56' W 004°37'4 7.7
2017-Jun-02 21:31N 47°58' W 004°41'611.4
2017-Jun-02 21:01N 48°03' W 004°47'612.1
2017-Jun-02 20:31N 48°09' W 004°46'713.4
2017-Jun-02 20:01N 48°15' W 004°45'612.4
2017-Jun-02 19:30N 48°19' W 004°37'510.3
2017-Jun-02 19:00N 48°22' W 004°31'2 3.3
2017-Jun-02 18:28N 48°23' W 004°29'0 0.0
2017-Jun-02 17:58N 48°23' W 004°29'0 0.0
2017-Jun-02 17:29N 48°23' W 004°29'0 0.0
2017-Jun-02 16:59N 48°23' W 004°29'0 0.0
2017-Jun-02 16:28N 48°23' W 004°29'0 0.0
2017-Jun-02 15:58N 48°23' W 004°29'0 0.0
2017-Jun-02 15:28N 48°23' W 004°29'0 0.0
2017-Jun-02 14:58N 48°23' W 004°29'0 0.0
2017-Jun-02 13:58N 48°23' W 004°29'0 0.0
2017-Jun-02 13:29N 48°23' W 004°29'0 0.0
2017-Jun-02 12:58N 48°23' W 004°29'0 0.0
2017-Jun-02 12:28N 48°23' W 004°29'0 0.0
2017-Jun-02 11:58N 48°23' W 004°29'0 0.0
2017-Jun-02 11:28N 48°23' W 004°29'0 0.0
2017-Jun-02 10:58N 48°23' W 004°29'0 0.0
2017-Jun-02 10:28N 48°23' W 004°29'0 0.0
2017-Jun-02 09:58N 48°23' W 004°29'0 0.0
2017-Jun-02 09:28N 48°23' W 004°29'0 0.0
2017-Jun-02 08:58N 48°23' W 004°29'0 0.0
2017-Jun-02 08:28N 48°23' W 004°29'0 0.0
2017-Jun-02 07:59N 48°23' W 004°29'0 0.0
2017-Jun-02 07:28N 48°23' W 004°29'0 0.0
2017-Jun-02 06:58N 48°23' W 004°29'0 0.0
2017-Jun-02 06:28N 48°23' W 004°29'0 0.0
2017-Jun-02 05:58N 48°23' W 004°29'0 0.0
2017-Jun-02 05:28N 48°23' W 004°29'0 0.0
2017-Jun-02 04:58N 48°23' W 004°29'0 0.0
2017-Jun-02 04:28N 48°23' W 004°29'0 0.0
2017-Jun-02 03:58N 48°23' W 004°29'0 0.0
2017-Jun-02 03:28N 48°23' W 004°29'0 0.0
2017-Jun-02 02:58N 48°23' W 004°29'0 0.0
2017-Jun-02 02:28N 48°23' W 004°29'0 0.0
2017-Jun-02 01:58N 48°23' W 004°29'0 0.0
2017-Jun-02 01:28N 48°23' W 004°29'0 0.0
2017-Jun-02 00:58N 48°23' W 004°29'0 0.0
2017-Jun-02 00:28N 48°23' W 004°29'0 0.0
2017-Jun-01 23:58N 48°23' W 004°29'0 0.0
2017-Jun-01 23:28N 48°23' W 004°29'0 0.0
2017-Jun-01 22:58N 48°23' W 004°29'0 0.0
2017-Jun-01 22:28N 48°23' W 004°29'0 0.0
2017-Jun-01 21:58N 48°23' W 004°29'0 0.0
2017-Jun-01 21:28N 48°23' W 004°29'0 0.0
2017-Jun-01 20:58N 48°23' W 004°29'0 0.0
2017-Jun-01 20:28N 48°23' W 004°29'0 0.0
2017-Jun-01 19:58N 48°23' W 004°29'0 0.0
2017-Jun-01 19:28N 48°23' W 004°29'0 0.0
2017-Jun-01 18:58N 48°23' W 004°29'0 0.0
2017-Jun-01 18:28N 48°23' W 004°29'0 0.0
2017-Jun-01 17:58N 48°23' W 004°29'0 0.0
2017-Jun-01 17:28N 48°23' W 004°29'0 0.0
2017-Jun-01 16:58N 48°23' W 004°29'0 0.0
2017-Jun-01 16:28N 48°23' W 004°29'0 0.0
2017-Jun-01 15:58N 48°23' W 004°29'0 0.0
2017-Jun-01 15:28N 48°23' W 004°29'0 0.0
2017-Jun-01 14:58N 48°23' W 004°29'4 4.1
2017-Jun-01 14:00N 48°20' W 004°34'612.4
2017-Jun-01 13:30N 48°17' W 004°42'611.7
2017-Jun-01 13:00N 48°12' W 004°45'612.5
2017-Jun-01 12:30N 48°06' W 004°46'2 4.4
2017-Jun-01 12:01N 48°03' W 004°47'2 3.3
2017-Jun-01 11:30N 48°02' W 004°46'611.5
2017-Jun-01 11:00N 47°57' W 004°41'612.6
2017-Jun-01 10:30N 47°51' W 004°37'612.6
2017-Jun-01 10:00N 47°46' W 004°33'4 7.6
2017-Jun-01 09:30N 47°42' W 004°31'4 4.1
2017-Jun-01 08:26N 47°39' W 004°26'2 3.7
2017-Jun-01 07:56N 47°38' W 004°24'2 3.6
2017-Jun-01 07:30N 47°38' W 004°21'2 3.5
2017-Jun-01 07:00N 47°38' W 004°24'0 1.0
2017-Jun-01 06:31N 47°39' W 004°24'3 4.6
2017-Jun-01 05:49N 47°38' W 004°20'3 9.3
2017-Jun-01 05:30N 47°38' W 004°24'5 9.8
2017-Jun-01 05:01N 47°40' W 004°31'4 8.1
2017-Jun-01 04:30N 47°39' W 004°25'1 1.8
2017-Jun-01 03:43N 47°40' W 004°23'1 2.6
2017-Jun-01 03:13N 47°39' W 004°21'1 2.6
2017-Jun-01 03:00N 47°39' W 004°21'1 2.5
2017-Jun-01 02:26N 47°37' W 004°22'1 1.7
2017-Jun-01 01:47N 47°37' W 004°23'2 2.0
2017-Jun-01 01:02N 47°37' W 004°25'1 2.6
2017-Jun-01 00:37N 47°38' W 004°25'1 3.1
2017-Jun-01 00:17N 47°39' W 004°25'2 2.2
2017-May-31 23:13N 47°39' W 004°21'1 2.4
2017-May-31 22:44N 47°38' W 004°23'0 1.7
2017-May-31 22:28N 47°38' W 004°23'0 0.4
2017-May-31 21:44N 47°38' W 004°24'0 0.5
2017-May-31 21:15N 47°38' W 004°24'0 0.5
2017-May-31 20:51N 47°38' W 004°24'0 0.5
2017-May-31 20:30N 47°38' W 004°24'0 0.3
2017-May-31 19:51N 47°38' W 004°23'1 3.2
2017-May-31 19:30N 47°38' W 004°25'1 2.3
2017-May-31 18:59N 47°38' W 004°23'2 3.7
2017-May-31 18:24N 47°37' W 004°20'1 3.2
2017-May-31 18:01N 47°37' W 004°19'2 4.7
2017-May-31 17:30N 47°38' W 004°22'2 3.0
2017-May-31 16:52N 47°38' W 004°25'0 0.1
2017-May-31 16:14N 47°38' W 004°25'0 0.1
2017-May-31 16:00N 47°38' W 004°25'2 1.4
2017-May-31 14:45N 47°37' W 004°22'0 0.2
2017-May-31 13:29N 47°37' W 004°22'1 2.9
2017-May-31 13:00N 47°38' W 004°23'1 1.6
2017-May-31 12:28N 47°39' W 004°24'0 0.2
2017-May-31 12:00N 47°39' W 004°24'0 0.3
2017-May-31 11:29N 47°39' W 004°24'0 0.2
2017-May-31 10:56N 47°39' W 004°24'0 0.1
2017-May-31 10:30N 47°39' W 004°24'0 0.2
2017-May-31 09:59N 47°39' W 004°24'0 0.2
2017-May-31 09:28N 47°39' W 004°24'0 0.0
2017-May-31 09:00N 47°39' W 004°24'3 1.4
2017-May-31 06:43N 47°37' W 004°20'1 2.0
2017-May-31 05:59N 47°38' W 004°22'1 1.3
2017-May-31 04:58N 47°37' W 004°20'1 2.3
2017-May-31 04:25N 47°37' W 004°22'1 1.8
2017-May-31 04:01N 47°37' W 004°23'2 1.8
2017-May-31 02:43N 47°39' W 004°25'1 2.5
2017-May-31 02:21N 47°40' W 004°25'1 2.1
2017-May-31 01:43N 47°40' W 004°23'1 2.4
2017-May-31 01:13N 47°39' W 004°21'1 2.7
2017-May-31 00:46N 47°38' W 004°21'1 3.0
2017-May-31 00:28N 47°37' W 004°21'1 1.7
2017-May-31 00:00N 47°37' W 004°23'1 2.6
2017-May-30 23:30N 47°39' W 004°24'1 0.8
2017-May-30 22:15N 47°38' W 004°24'3 0.7
2017-May-30 18:48N 47°37' W 004°20'0 0.3
2017-May-30 18:26N 47°37' W 004°20'0 0.2
2017-May-30 18:00N 47°37' W 004°20'0 0.1
2017-May-30 17:27N 47°37' W 004°20'0 0.3
2017-May-30 16:52N 47°37' W 004°21'0 0.4
2017-May-30 16:28N 47°37' W 004°21'2 1.1
2017-May-30 14:33N 47°38' W 004°24'0 2.8
2017-May-30 14:29N 47°38' W 004°24'1 0.1
2017-May-30 09:48N 47°38' W 004°23'6 8.2
2017-May-30 09:07N 47°41' W 004°16'3 8.7
2017-May-30 08:43N 47°39' W 004°19'17 9.7
2017-May-30 06:59N 47°43' W 004°44'5 9.9
2017-May-30 06:30N 47°44' W 004°51'510.2
2017-May-30 06:00N 47°43' W 004°58'2 4.4
2017-May-30 05:31N 47°42' W 005°01'1 1.7
2017-May-30 04:45N 47°42' W 005°03'2 3.4
2017-May-30 04:18N 47°43' W 005°05'1 2.6
2017-May-30 03:59N 47°44' W 005°04'1 1.6
2017-May-30 03:30N 47°44' W 005°03'1 1.9
2017-May-30 03:00N 47°45' W 005°02'1 2.6
2017-May-30 02:28N 47°44' W 005°00'1 2.0
2017-May-30 02:00N 47°43' W 004°59'1 2.2
2017-May-30 01:30N 47°42' W 005°01'2 2.1
2017-May-30 00:44N 47°44' W 005°01'0 1.8
2017-May-30 00:31N 47°44' W 005°01'1 2.3
2017-May-30 00:00N 47°43' W 005°01'1 2.0
2017-May-29 23:30N 47°42' W 005°02'1 1.3
2017-May-29 23:00N 47°41' W 005°02'1 1.4
2017-May-29 22:27N 47°42' W 005°02'1 1.2
2017-May-29 22:00N 47°42' W 005°02'1 1.1
2017-May-29 21:30N 47°43' W 005°02'1 1.7
2017-May-29 21:00N 47°43' W 005°03'1 1.5
2017-May-29 20:13N 47°44' W 005°03'0 2.0
2017-May-29 20:01N 47°44' W 005°03'1 1.9
2017-May-29 19:30N 47°45' W 005°02'1 2.4
2017-May-29 19:00N 47°44' W 005°03'1 2.7
2017-May-29 18:30N 47°43' W 005°03'2 2.1
2017-May-29 17:41N 47°41' W 005°02'1 2.5
2017-May-29 17:18N 47°42' W 005°01'1 2.7
2017-May-29 17:00N 47°43' W 005°00'1 1.9
2017-May-29 16:30N 47°43' W 004°60'1 2.7
2017-May-29 16:00N 47°44' W 005°01'1 1.9
2017-May-29 15:31N 47°45' W 005°02'1 2.8
2017-May-29 15:00N 47°44' W 005°04'1 1.2
2017-May-29 13:49N 47°43' W 005°02'2 2.6
2017-May-29 13:06N 47°44' W 004°60'0 2.6
2017-May-29 12:55N 47°44' W 004°59'1 2.1
2017-May-29 12:30N 47°44' W 004°60'1 2.2
2017-May-29 12:01N 47°43' W 005°01'1 2.1
2017-May-29 11:20N 47°42' W 005°02'1 2.0
2017-May-29 10:37N 47°41' W 005°04'0 0.8
2017-May-29 10:29N 47°41' W 005°04'1 1.2
2017-May-29 10:00N 47°41' W 005°03'1 1.2
2017-May-29 09:30N 47°42' W 005°03'1 1.1
2017-May-29 09:00N 47°42' W 005°03'1 1.1
2017-May-29 08:30N 47°43' W 005°03'0 0.9
2017-May-29 07:58N 47°43' W 005°02'0 0.9
2017-May-29 07:31N 47°44' W 005°02'0 0.5
2017-May-29 07:01N 47°44' W 005°02'0 0.7
2017-May-29 06:29N 47°44' W 005°01'0 1.0
2017-May-29 05:59N 47°45' W 005°02'1 1.9
2017-May-29 05:30N 47°46' W 005°01'1 2.5
2017-May-29 05:00N 47°46' W 005°00'1 1.9
2017-May-29 04:30N 47°46' W 004°59'2 2.4
2017-May-29 03:46N 47°45' W 004°57'1 2.4
2017-May-29 03:31N 47°45' W 004°58'1 2.5
2017-May-29 03:00N 47°44' W 004°59'1 1.9
2017-May-29 02:13N 47°44' W 005°01'1 2.7
2017-May-29 01:57N 47°45' W 005°02'1 1.7
2017-May-29 01:27N 47°46' W 005°01'1 2.4
2017-May-29 00:59N 47°46' W 005°00'1 1.2
2017-May-29 00:31N 47°47' W 004°59'2 3.0
2017-May-29 00:00N 47°45' W 005°00'1 2.4
2017-May-28 23:29N 47°44' W 005°02'1 1.9
2017-May-28 23:00N 47°45' W 005°01'1 2.2
2017-May-28 22:31N 47°45' W 004°59'0 0.6
2017-May-28 21:56N 47°46' W 004°59'0 1.0
2017-May-28 21:30N 47°46' W 004°59'1 1.1
2017-May-28 21:00N 47°46' W 004°59'1 1.5
2017-May-28 20:30N 47°45' W 004°59'1 1.3
2017-May-28 20:01N 47°44' W 004°59'1 1.5
2017-May-28 19:31N 47°43' W 004°59'0 0.1
2017-May-28 19:00N 47°43' W 004°59'0 0.5
2017-May-28 18:31N 47°44' W 004°59'0 0.5
2017-May-28 18:00N 47°44' W 004°59'0 0.2
2017-May-28 17:30N 47°44' W 004°59'0 0.1
2017-May-28 17:00N 47°44' W 004°59'0 0.5
2017-May-28 16:31N 47°44' W 004°59'2 4.6
2017-May-28 15:58N 47°42' W 005°01'611.8
2017-May-28 15:28N 47°47' W 004°55'511.6
2017-May-28 15:01N 47°51' W 004°50'1110.6
2017-May-28 14:00N 48°01' W 004°45'3 6.5
2017-May-28 13:31N 48°04' W 004°46'5 9.5
2017-May-28 13:01N 48°08' W 004°46'611.5
2017-May-28 12:31N 48°14' W 004°45'611.7
2017-May-28 12:01N 48°19' W 004°41'1 2.0
2017-May-28 11:28N 48°20' W 004°41'0 0.1
2017-May-28 10:58N 48°20' W 004°41'0 0.1
2017-May-28 10:28N 48°20' W 004°41'0 0.0
2017-May-28 09:58N 48°20' W 004°41'0 0.0
2017-May-28 09:28N 48°20' W 004°41'0 0.0
2017-May-28 08:58N 48°20' W 004°41'0 0.0
2017-May-28 08:28N 48°20' W 004°41'0 0.0
2017-May-28 07:58N 48°20' W 004°41'0 0.0
2017-May-28 07:28N 48°20' W 004°41'0 0.6
2017-May-28 07:00N 48°20' W 004°40'510.7
2017-May-28 06:30N 48°21' W 004°32'3 5.8
2017-May-28 06:00N 48°23' W 004°29'0 0.0
2017-May-28 05:30N 48°23' W 004°29'0 0.0
2017-May-28 04:58N 48°23' W 004°29'0 0.0
2017-May-28 04:28N 48°23' W 004°29'0 0.0
2017-May-28 03:58N 48°23' W 004°29'0 0.0
2017-May-28 03:28N 48°23' W 004°29'0 0.0
2017-May-28 02:58N 48°23' W 004°29'0 0.0
2017-May-28 02:28N 48°23' W 004°29'0 0.0
2017-May-28 01:58N 48°23' W 004°29'0 0.0
2017-May-28 01:28N 48°23' W 004°29'0 0.0
2017-May-28 00:58N 48°23' W 004°29'0 0.0
2017-May-28 00:28N 48°23' W 004°29'0 0.0
2017-May-27 23:58N 48°23' W 004°29'0 0.0
2017-May-27 23:28N 48°23' W 004°29'0 0.0
2017-May-27 22:58N 48°23' W 004°29'0 0.0
2017-May-27 22:28N 48°23' W 004°29'0 0.0
2017-May-27 21:58N 48°23' W 004°29'0 0.0
2017-May-27 21:28N 48°23' W 004°29'0 0.0
2017-May-27 20:58N 48°23' W 004°29'0 0.0
2017-May-27 20:28N 48°23' W 004°29'0 0.0
2017-May-27 19:58N 48°23' W 004°29'0 0.0
2017-May-27 19:28N 48°23' W 004°29'0 0.0
2017-May-27 18:58N 48°23' W 004°29'0 0.0
2017-May-27 18:28N 48°23' W 004°29'0 0.0
2017-May-27 17:58N 48°23' W 004°29'0 0.0
2017-May-27 17:31N 48°23' W 004°29'0 0.0
2017-May-27 16:58N 48°23' W 004°29'0 0.0
2017-May-27 16:28N 48°23' W 004°29'0 0.0
2017-May-27 16:01N 48°23' W 004°29'0 0.0
2017-May-27 15:31N 48°23' W 004°29'0 0.0
2017-May-27 15:01N 48°23' W 004°29'0 0.0
2017-May-27 14:31N 48°23' W 004°29'0 0.0
2017-May-27 13:31N 48°23' W 004°29'0 0.0
2017-May-27 13:01N 48°23' W 004°29'0 0.0
2017-May-27 12:30N 48°23' W 004°29'0 0.0
2017-May-27 12:00N 48°23' W 004°29'0 0.0
2017-May-27 11:30N 48°23' W 004°29'0 0.0
2017-May-27 11:00N 48°23' W 004°29'0 0.0
2017-May-27 10:31N 48°23' W 004°29'0 0.0
2017-May-27 10:00N 48°23' W 004°29'0 0.0
2017-May-27 09:30N 48°23' W 004°29'0 0.0
2017-May-27 09:01N 48°23' W 004°29'0 0.0
2017-May-27 08:30N 48°23' W 004°29'0 0.0
2017-May-27 08:01N 48°23' W 004°29'0 0.0
2017-May-27 07:31N 48°23' W 004°29'0 0.0
2017-May-27 07:01N 48°23' W 004°29'0 0.0
2017-May-27 06:31N 48°23' W 004°29'0 0.0
2017-May-27 06:01N 48°23' W 004°29'0 0.0
2017-May-27 05:30N 48°23' W 004°29'0 0.0
2017-May-27 05:00N 48°23' W 004°29'0 0.0
2017-May-27 04:30N 48°23' W 004°29'0 0.0
2017-May-27 04:00N 48°23' W 004°29'0 0.0
2017-May-27 03:30N 48°23' W 004°29'0 0.0
2017-May-27 03:00N 48°23' W 004°29'0 0.0
2017-May-27 02:30N 48°23' W 004°29'0 0.0
2017-May-27 02:01N 48°23' W 004°29'0 0.0
2017-May-27 01:30N 48°23' W 004°29'0 0.0
2017-May-27 01:00N 48°23' W 004°29'0 0.0
2017-May-27 00:30N 48°23' W 004°29'0 0.0
2017-May-27 00:00N 48°23' W 004°29'0 0.0
2017-May-26 23:30N 48°23' W 004°29'0 0.0
2017-May-26 23:00N 48°23' W 004°29'0 0.0
2017-May-26 22:30N 48°23' W 004°29'0 0.0
2017-May-26 22:00N 48°23' W 004°29'0 0.0
2017-May-26 21:30N 48°23' W 004°29'0 0.0
2017-May-26 21:00N 48°23' W 004°29'0 0.0
2017-May-26 20:30N 48°23' W 004°29'0 0.0
2017-May-26 20:00N 48°23' W 004°29'0 0.0
2017-May-26 19:30N 48°23' W 004°29'0 0.0
2017-May-26 19:00N 48°23' W 004°29'0 0.0
2017-May-26 18:30N 48°23' W 004°29'0 0.0
2017-May-26 18:00N 48°23' W 004°29'0 0.0
2017-May-26 17:30N 48°23' W 004°29'0 0.0
2017-May-26 17:00N 48°23' W 004°29'0 0.0
2017-May-26 16:30N 48°23' W 004°29'0 0.0
2017-May-26 16:00N 48°23' W 004°29'0 0.0
2017-May-26 15:30N 48°23' W 004°29'0 0.0
2017-May-26 15:00N 48°23' W 004°29'0 0.0
2017-May-26 14:00N 48°23' W 004°29'0 0.0
2017-May-26 13:30N 48°23' W 004°29'0 0.0
2017-May-26 13:00N 48°23' W 004°29'0 0.0
2017-May-26 12:30N 48°23' W 004°29'0 0.0
2017-May-26 12:00N 48°23' W 004°29'0 0.0
2017-May-26 11:30N 48°23' W 004°29'0 0.0
2017-May-26 11:00N 48°23' W 004°29'0 0.0
2017-May-26 10:30N 48°23' W 004°29'0 0.0
2017-May-26 10:00N 48°23' W 004°29'0 0.0
2017-May-26 09:30N 48°23' W 004°29'0 0.0
2017-May-26 09:00N 48°23' W 004°29'0 0.0
2017-May-26 08:30N 48°23' W 004°29'0 0.0
2017-May-26 08:00N 48°23' W 004°29'0 0.0
2017-May-26 07:30N 48°23' W 004°29'0 0.0
2017-May-26 07:00N 48°23' W 004°29'0 0.0
2017-May-26 06:30N 48°23' W 004°29'0 0.0
2017-May-26 06:00N 48°23' W 004°29'0 0.0
2017-May-26 05:30N 48°23' W 004°29'0 0.0
2017-May-26 05:00N 48°23' W 004°29'0 0.0
2017-May-26 04:30N 48°23' W 004°29'0 0.0
2017-May-26 04:00N 48°23' W 004°29'0 0.0
2017-May-26 03:30N 48°23' W 004°29'0 0.0
2017-May-26 03:00N 48°23' W 004°29'0 0.0
2017-May-26 02:30N 48°23' W 004°29'0 0.0
2017-May-26 02:00N 48°23' W 004°29'0 0.0
2017-May-26 01:30N 48°23' W 004°29'0 0.0
2017-May-26 01:00N 48°23' W 004°29'0 0.0
2017-May-26 00:30N 48°23' W 004°29'0 0.0
2017-May-26 00:00N 48°23' W 004°29'0 0.0
2017-May-25 23:30N 48°23' W 004°29'0 0.0
2017-May-25 23:00N 48°23' W 004°29'0 0.0
2017-May-25 22:30N 48°23' W 004°29'0 0.0
2017-May-25 22:00N 48°23' W 004°29'0 0.0
2017-May-25 21:30N 48°23' W 004°29'0 0.0
2017-May-25 21:00N 48°23' W 004°29'0 0.0
2017-May-25 20:30N 48°23' W 004°29'0 0.0
2017-May-25 20:00N 48°23' W 004°29'0 0.0
2017-May-25 19:30N 48°23' W 004°29'0 0.0
2017-May-25 19:00N 48°23' W 004°29'0 0.0
2017-May-25 18:30N 48°23' W 004°29'0 0.0
2017-May-25 18:00N 48°23' W 004°29'0 0.0
2017-May-25 17:30N 48°23' W 004°29'0 0.0
2017-May-25 17:00N 48°23' W 004°29'0 0.0
2017-May-25 16:30N 48°23' W 004°29'0 0.0
2017-May-25 16:00N 48°23' W 004°29'0 0.0
2017-May-25 15:30N 48°23' W 004°29'0 0.0
2017-May-25 15:00N 48°23' W 004°29'0 0.0
2017-May-25 14:00N 48°23' W 004°29'0 0.0
2017-May-25 13:30N 48°23' W 004°29'0 0.0
2017-May-25 13:00N 48°23' W 004°29'0 0.0
2017-May-25 12:30N 48°23' W 004°29'0 0.0
2017-May-25 12:00N 48°23' W 004°29'0 0.0
2017-May-25 11:30N 48°23' W 004°29'0 0.0
2017-May-25 11:00N 48°23' W 004°29'0 0.0
2017-May-25 10:30N 48°23' W 004°29'0 0.0
2017-May-25 10:00N 48°23' W 004°29'0 0.0
2017-May-25 09:30N 48°23' W 004°29'0 0.0
2017-May-25 09:00N 48°23' W 004°29'0 0.0
2017-May-25 08:30N 48°23' W 004°29'0 0.0
2017-May-25 08:00N 48°23' W 004°29'0 0.0
2017-May-25 07:30N 48°23' W 004°29'0 0.0
2017-May-25 07:00N 48°23' W 004°29'0 0.0
2017-May-25 06:30N 48°23' W 004°29'0 0.0
2017-May-25 06:00N 48°23' W 004°29'0 0.0
2017-May-25 05:30N 48°23' W 004°29'0 0.0
2017-May-25 05:00N 48°23' W 004°29'0 0.0
2017-May-25 04:30N 48°23' W 004°29'0 0.0
2017-May-25 04:00N 48°23' W 004°29'0 0.0
2017-May-25 03:30N 48°23' W 004°29'0 0.0
2017-May-25 03:00N 48°23' W 004°29'0 0.0
2017-May-25 02:30N 48°23' W 004°29'0 0.0
2017-May-25 02:00N 48°23' W 004°29'0 0.0
2017-May-25 01:30N 48°23' W 004°29'0 0.0
2017-May-25 01:00N 48°23' W 004°29'0 0.0
2017-May-25 00:30N 48°23' W 004°29'0 0.0
2017-May-25 00:00N 48°23' W 004°29'0 0.0
2017-May-24 23:30N 48°23' W 004°29'0 0.0
2017-May-24 23:00N 48°23' W 004°29'0 0.0
2017-May-24 22:30N 48°23' W 004°29'0 0.0
2017-May-24 22:00N 48°23' W 004°29'0 0.0
2017-May-24 21:30N 48°23' W 004°29'0 0.0
2017-May-24 21:00N 48°23' W 004°29'0 0.0
2017-May-24 20:30N 48°23' W 004°29'0 0.0
2017-May-24 20:00N 48°23' W 004°29'0 0.0
2017-May-24 19:30N 48°23' W 004°29'0 0.0
2017-May-24 19:00N 48°23' W 004°29'0 0.0
2017-May-24 18:30N 48°23' W 004°29'0 0.0
2017-May-24 18:00N 48°23' W 004°29'0 0.0
2017-May-24 17:30N 48°23' W 004°29'0 0.0
2017-May-24 17:00N 48°23' W 004°29'0 0.0
2017-May-24 16:30N 48°23' W 004°29'0 0.0
2017-May-24 16:00N 48°23' W 004°29'0 0.0
2017-May-24 15:30N 48°23' W 004°29'0 0.0
2017-May-24 15:00N 48°23' W 004°29'0 0.0
2017-May-24 14:30N 48°23' W 004°29'4 3.9
2017-May-24 13:30N 48°21' W 004°34'5 9.8
2017-May-24 13:00N 48°19' W 004°41'510.2
2017-May-24 12:31N 48°20' W 004°48'5 9.1
2017-May-24 12:00N 48°25' W 004°49'511.0
2017-May-24 11:30N 48°30' W 004°51'611.6
2017-May-24 11:00N 48°36' W 004°52'  

Dump ship's entire track history